sensor_id;sensor_type;location;lat;lon;timestamp;P1;durP1;ratioP1;P2;durP2;ratioP2
56242;SDS011;42155;53.096;23.226;2023-02-13T00:00:31;49.88;;;18.77;;
56242;SDS011;42155;53.096;23.226;2023-02-13T00:02:32;51.80;;;20.40;;
56242;SDS011;42155;53.096;23.226;2023-02-13T00:04:32;53.30;;;18.98;;
56242;SDS011;42155;53.096;23.226;2023-02-13T00:06:33;45.92;;;17.30;;
56242;SDS011;42155;53.096;23.226;2023-02-13T00:08:33;42.08;;;18.05;;
56242;SDS011;42155;53.096;23.226;2023-02-13T00:10:34;49.65;;;19.25;;
56242;SDS011;42155;53.096;23.226;2023-02-13T00:12:35;50.38;;;19.52;;
56242;SDS011;42155;53.096;23.226;2023-02-13T00:14:36;49.90;;;18.63;;
56242;SDS011;42155;53.096;23.226;2023-02-13T00:16:38;51.50;;;18.98;;
56242;SDS011;42155;53.096;23.226;2023-02-13T00:18:38;52.55;;;19.33;;
56242;SDS011;42155;53.096;23.226;2023-02-13T00:20:39;46.53;;;19.48;;
56242;SDS011;42155;53.096;23.226;2023-02-13T00:22:40;44.00;;;17.98;;
56242;SDS011;42155;53.096;23.226;2023-02-13T00:24:40;40.70;;;17.38;;
56242;SDS011;42155;53.096;23.226;2023-02-13T00:26:40;44.85;;;18.95;;
56242;SDS011;42155;53.096;23.226;2023-02-13T00:28:41;46.60;;;18.52;;
56242;SDS011;42155;53.096;23.226;2023-02-13T00:30:42;47.15;;;18.70;;
56242;SDS011;42155;53.096;23.226;2023-02-13T00:32:42;44.70;;;18.23;;
56242;SDS011;42155;53.096;23.226;2023-02-13T00:34:43;49.05;;;17.48;;
56242;SDS011;42155;53.096;23.226;2023-02-13T00:36:43;40.15;;;16.52;;
56242;SDS011;42155;53.096;23.226;2023-02-13T00:38:43;38.22;;;15.80;;
56242;SDS011;42155;53.096;23.226;2023-02-13T00:40:44;38.70;;;16.75;;
56242;SDS011;42155;53.096;23.226;2023-02-13T00:42:44;43.83;;;16.77;;
56242;SDS011;42155;53.096;23.226;2023-02-13T00:44:45;39.22;;;16.17;;
56242;SDS011;42155;53.096;23.226;2023-02-13T00:46:45;38.00;;;16.45;;
56242;SDS011;42155;53.096;23.226;2023-02-13T00:48:45;38.70;;;16.58;;
56242;SDS011;42155;53.096;23.226;2023-02-13T00:50:46;35.75;;;16.70;;
56242;SDS011;42155;53.096;23.226;2023-02-13T00:52:47;43.75;;;16.90;;
56242;SDS011;42155;53.096;23.226;2023-02-13T00:54:47;43.05;;;16.77;;
56242;SDS011;42155;53.096;23.226;2023-02-13T00:56:47;39.30;;;15.90;;
56242;SDS011;42155;53.096;23.226;2023-02-13T00:58:48;36.88;;;16.50;;
56242;SDS011;42155;53.096;23.226;2023-02-13T01:00:48;44.60;;;18.48;;
56242;SDS011;42155;53.096;23.226;2023-02-13T01:02:50;40.47;;;16.65;;
56242;SDS011;42155;53.096;23.226;2023-02-13T01:04:50;39.05;;;15.98;;
56242;SDS011;42155;53.096;23.226;2023-02-13T01:06:51;47.97;;;17.83;;
56242;SDS011;42155;53.096;23.226;2023-02-13T01:08:51;37.78;;;17.60;;
56242;SDS011;42155;53.096;23.226;2023-02-13T01:10:51;41.78;;;17.35;;
56242;SDS011;42155;53.096;23.226;2023-02-13T01:12:52;41.97;;;17.15;;
56242;SDS011;42155;53.096;23.226;2023-02-13T01:14:52;40.00;;;16.70;;
56242;SDS011;42155;53.096;23.226;2023-02-13T01:16:53;41.90;;;17.85;;
56242;SDS011;42155;53.096;23.226;2023-02-13T01:18:54;39.67;;;16.35;;
56242;SDS011;42155;53.096;23.226;2023-02-13T01:21:01;41.05;;;18.10;;
56242;SDS011;42155;53.096;23.226;2023-02-13T01:23:07;40.25;;;16.50;;
56242;SDS011;42155;53.096;23.226;2023-02-13T01:25:07;39.63;;;16.60;;
56242;SDS011;42155;53.096;23.226;2023-02-13T01:27:07;40.28;;;18.00;;
56242;SDS011;42155;53.096;23.226;2023-02-13T01:29:08;39.50;;;16.20;;
56242;SDS011;42155;53.096;23.226;2023-02-13T01:31:11;47.90;;;18.80;;
56242;SDS011;42155;53.096;23.226;2023-02-13T01:33:12;46.00;;;17.55;;
56242;SDS011;42155;53.096;23.226;2023-02-13T01:35:13;42.88;;;18.42;;
56242;SDS011;42155;53.096;23.226;2023-02-13T01:37:14;43.63;;;16.80;;
56242;SDS011;42155;53.096;23.226;2023-02-13T01:39:14;41.50;;;17.63;;
56242;SDS011;42155;53.096;23.226;2023-02-13T01:41:15;46.03;;;18.25;;
56242;SDS011;42155;53.096;23.226;2023-02-13T01:43:15;49.40;;;18.85;;
56242;SDS011;42155;53.096;23.226;2023-02-13T01:47:25;46.15;;;17.92;;
56242;SDS011;42155;53.096;23.226;2023-02-13T01:49:26;47.58;;;19.02;;
56242;SDS011;42155;53.096;23.226;2023-02-13T01:51:28;51.85;;;19.80;;
56242;SDS011;42155;53.096;23.226;2023-02-13T01:53:35;47.42;;;18.55;;
56242;SDS011;42155;53.096;23.226;2023-02-13T01:55:44;42.63;;;18.05;;
56242;SDS011;42155;53.096;23.226;2023-02-13T01:57:56;42.33;;;17.60;;
56242;SDS011;42155;53.096;23.226;2023-02-13T02:00:11;46.17;;;18.88;;
56242;SDS011;42155;53.096;23.226;2023-02-13T02:02:13;43.15;;;17.67;;
56242;SDS011;42155;53.096;23.226;2023-02-13T02:04:16;51.78;;;18.17;;
56242;SDS011;42155;53.096;23.226;2023-02-13T02:06:25;41.83;;;17.15;;
56242;SDS011;42155;53.096;23.226;2023-02-13T02:08:29;46.55;;;18.58;;
56242;SDS011;42155;53.096;23.226;2023-02-13T02:10:30;48.45;;;18.08;;
56242;SDS011;42155;53.096;23.226;2023-02-13T02:13:17;57.97;;;19.50;;
56242;SDS011;42155;53.096;23.226;2023-02-13T02:15:00;50.53;;;17.15;;
56242;SDS011;42155;53.096;23.226;2023-02-13T02:17:03;60.83;;;19.15;;
56242;SDS011;42155;53.096;23.226;2023-02-13T02:19:04;41.90;;;17.02;;
56242;SDS011;42155;53.096;23.226;2023-02-13T02:30:31;47.40;;;16.88;;
56242;SDS011;42155;53.096;23.226;2023-02-13T02:37:37;45.30;;;16.33;;
56242;SDS011;42155;53.096;23.226;2023-02-13T02:40:00;39.03;;;15.68;;
56242;SDS011;42155;53.096;23.226;2023-02-13T02:51:08;38.72;;;15.43;;
56242;SDS011;42155;53.096;23.226;2023-02-13T02:57:26;42.90;;;15.43;;
56242;SDS011;42155;53.096;23.226;2023-02-13T02:59:29;38.95;;;15.18;;
56242;SDS011;42155;53.096;23.226;2023-02-13T03:01:31;43.92;;;16.00;;
56242;SDS011;42155;53.096;23.226;2023-02-13T03:03:33;41.58;;;16.10;;
56242;SDS011;42155;53.096;23.226;2023-02-13T03:05:34;44.72;;;15.95;;
56242;SDS011;42155;53.096;23.226;2023-02-13T03:07:39;41.08;;;15.40;;
56242;SDS011;42155;53.096;23.226;2023-02-13T03:09:43;50.25;;;17.80;;
56242;SDS011;42155;53.096;23.226;2023-02-13T03:11:48;51.92;;;17.67;;
56242;SDS011;42155;53.096;23.226;2023-02-13T03:13:50;38.25;;;16.13;;
56242;SDS011;42155;53.096;23.226;2023-02-13T03:15:52;42.10;;;16.20;;
56242;SDS011;42155;53.096;23.226;2023-02-13T03:17:56;43.65;;;16.20;;
56242;SDS011;42155;53.096;23.226;2023-02-13T03:22:50;45.28;;;16.88;;
56242;SDS011;42155;53.096;23.226;2023-02-13T03:24:32;37.08;;;15.68;;
56242;SDS011;42155;53.096;23.226;2023-02-13T03:29:11;45.20;;;17.17;;
56242;SDS011;42155;53.096;23.226;2023-02-13T03:31:43;36.38;;;15.10;;
56242;SDS011;42155;53.096;23.226;2023-02-13T03:34:00;44.15;;;14.73;;
56242;SDS011;42155;53.096;23.226;2023-02-13T03:38:58;42.58;;;14.73;;
56242;SDS011;42155;53.096;23.226;2023-02-13T03:40:57;39.25;;;15.43;;
56242;SDS011;42155;53.096;23.226;2023-02-13T03:43:13;37.08;;;14.32;;
56242;SDS011;42155;53.096;23.226;2023-02-13T03:45:20;39.55;;;15.25;;
56242;SDS011;42155;53.096;23.226;2023-02-13T03:47:24;40.50;;;15.45;;
56242;SDS011;42155;53.096;23.226;2023-02-13T03:49:29;36.50;;;14.60;;
56242;SDS011;42155;53.096;23.226;2023-02-13T03:51:36;39.67;;;14.70;;
56242;SDS011;42155;53.096;23.226;2023-02-13T03:53:41;37.72;;;15.57;;
56242;SDS011;42155;53.096;23.226;2023-02-13T03:55:46;37.70;;;14.98;;
56242;SDS011;42155;53.096;23.226;2023-02-13T03:57:48;42.30;;;15.43;;
56242;SDS011;42155;53.096;23.226;2023-02-13T03:59:51;34.78;;;14.50;;
56242;SDS011;42155;53.096;23.226;2023-02-13T04:01:59;37.45;;;15.07;;
56242;SDS011;42155;53.096;23.226;2023-02-13T04:08:33;34.60;;;13.80;;
56242;SDS011;42155;53.096;23.226;2023-02-13T04:10:33;39.65;;;14.43;;
56242;SDS011;42155;53.096;23.226;2023-02-13T04:12:50;38.15;;;14.05;;
56242;SDS011;42155;53.096;23.226;2023-02-13T04:17:16;31.48;;;13.63;;
56242;SDS011;42155;53.096;23.226;2023-02-13T04:19:23;37.45;;;14.73;;
56242;SDS011;42155;53.096;23.226;2023-02-13T04:21:25;35.38;;;14.23;;
56242;SDS011;42155;53.096;23.226;2023-02-13T04:23:26;33.38;;;13.55;;
56242;SDS011;42155;53.096;23.226;2023-02-13T04:25:26;29.02;;;13.25;;
56242;SDS011;42155;53.096;23.226;2023-02-13T04:27:26;34.70;;;14.60;;
56242;SDS011;42155;53.096;23.226;2023-02-13T04:29:27;32.22;;;14.20;;
56242;SDS011;42155;53.096;23.226;2023-02-13T04:31:27;29.77;;;12.63;;
56242;SDS011;42155;53.096;23.226;2023-02-13T04:33:28;29.77;;;12.60;;
56242;SDS011;42155;53.096;23.226;2023-02-13T04:35:28;30.35;;;13.43;;
56242;SDS011;42155;53.096;23.226;2023-02-13T04:37:28;29.95;;;12.65;;
56242;SDS011;42155;53.096;23.226;2023-02-13T04:39:29;28.98;;;12.60;;
56242;SDS011;42155;53.096;23.226;2023-02-13T04:41:29;25.73;;;11.85;;
56242;SDS011;42155;53.096;23.226;2023-02-13T04:43:30;31.10;;;12.93;;
56242;SDS011;42155;53.096;23.226;2023-02-13T04:45:30;31.88;;;14.68;;
56242;SDS011;42155;53.096;23.226;2023-02-13T04:47:30;30.58;;;12.55;;
56242;SDS011;42155;53.096;23.226;2023-02-13T04:49:31;29.83;;;12.60;;
56242;SDS011;42155;53.096;23.226;2023-02-13T04:51:32;30.50;;;12.27;;
56242;SDS011;42155;53.096;23.226;2023-02-13T04:53:32;25.73;;;11.55;;
56242;SDS011;42155;53.096;23.226;2023-02-13T04:55:32;30.77;;;13.35;;
56242;SDS011;42155;53.096;23.226;2023-02-13T04:57:33;29.10;;;12.52;;
56242;SDS011;42155;53.096;23.226;2023-02-13T04:59:33;28.08;;;12.38;;
56242;SDS011;42155;53.096;23.226;2023-02-13T05:01:33;28.23;;;12.23;;
56242;SDS011;42155;53.096;23.226;2023-02-13T05:03:34;25.80;;;11.30;;
56242;SDS011;42155;53.096;23.226;2023-02-13T05:05:34;21.25;;;11.02;;
56242;SDS011;42155;53.096;23.226;2023-02-13T05:07:35;27.52;;;11.70;;
56242;SDS011;42155;53.096;23.226;2023-02-13T05:09:35;30.40;;;11.68;;
56242;SDS011;42155;53.096;23.226;2023-02-13T05:11:35;24.55;;;11.45;;
56242;SDS011;42155;53.096;23.226;2023-02-13T05:13:36;24.73;;;11.13;;
56242;SDS011;42155;53.096;23.226;2023-02-13T05:15:36;23.13;;;10.50;;
56242;SDS011;42155;53.096;23.226;2023-02-13T05:17:36;28.60;;;12.15;;
56242;SDS011;42155;53.096;23.226;2023-02-13T05:19:37;30.40;;;11.60;;
56242;SDS011;42155;53.096;23.226;2023-02-13T05:21:37;29.63;;;11.73;;
56242;SDS011;42155;53.096;23.226;2023-02-13T05:23:37;23.55;;;10.00;;
56242;SDS011;42155;53.096;23.226;2023-02-13T05:25:39;24.67;;;11.50;;
56242;SDS011;42155;53.096;23.226;2023-02-13T05:27:40;26.95;;;10.95;;
56242;SDS011;42155;53.096;23.226;2023-02-13T05:29:41;28.05;;;11.93;;
56242;SDS011;42155;53.096;23.226;2023-02-13T05:31:41;26.48;;;11.60;;
56242;SDS011;42155;53.096;23.226;2023-02-13T05:33:41;25.63;;;11.70;;
56242;SDS011;42155;53.096;23.226;2023-02-13T05:35:42;26.23;;;12.00;;
56242;SDS011;42155;53.096;23.226;2023-02-13T05:37:42;34.22;;;11.70;;
56242;SDS011;42155;53.096;23.226;2023-02-13T05:39:42;30.42;;;11.55;;
56242;SDS011;42155;53.096;23.226;2023-02-13T05:41:43;26.02;;;11.38;;
56242;SDS011;42155;53.096;23.226;2023-02-13T05:43:45;25.08;;;10.50;;
56242;SDS011;42155;53.096;23.226;2023-02-13T05:45:45;20.40;;;9.82;;
56242;SDS011;42155;53.096;23.226;2023-02-13T05:47:45;23.98;;;9.95;;
56242;SDS011;42155;53.096;23.226;2023-02-13T05:49:45;22.05;;;10.45;;
56242;SDS011;42155;53.096;23.226;2023-02-13T05:51:46;22.63;;;9.77;;
56242;SDS011;42155;53.096;23.226;2023-02-13T05:53:46;25.35;;;10.52;;
56242;SDS011;42155;53.096;23.226;2023-02-13T05:55:46;21.30;;;9.68;;
56242;SDS011;42155;53.096;23.226;2023-02-13T05:57:47;24.88;;;10.30;;
56242;SDS011;42155;53.096;23.226;2023-02-13T05:59:47;18.48;;;9.38;;
56242;SDS011;42155;53.096;23.226;2023-02-13T06:01:47;21.17;;;9.52;;
56242;SDS011;42155;53.096;23.226;2023-02-13T06:03:48;20.63;;;9.98;;
56242;SDS011;42155;53.096;23.226;2023-02-13T06:05:48;22.05;;;10.73;;
56242;SDS011;42155;53.096;23.226;2023-02-13T06:07:49;23.92;;;10.73;;
56242;SDS011;42155;53.096;23.226;2023-02-13T06:09:49;24.05;;;10.05;;
56242;SDS011;42155;53.096;23.226;2023-02-13T06:11:49;22.67;;;10.90;;
56242;SDS011;42155;53.096;23.226;2023-02-13T06:13:50;26.27;;;10.18;;
56242;SDS011;42155;53.096;23.226;2023-02-13T06:15:50;24.58;;;10.88;;
56242;SDS011;42155;53.096;23.226;2023-02-13T06:17:51;24.08;;;10.35;;
56242;SDS011;42155;53.096;23.226;2023-02-13T06:19:51;22.75;;;10.48;;
56242;SDS011;42155;53.096;23.226;2023-02-13T06:21:52;21.65;;;10.55;;
56242;SDS011;42155;53.096;23.226;2023-02-13T06:23:52;20.17;;;9.68;;
56242;SDS011;42155;53.096;23.226;2023-02-13T06:25:52;20.73;;;9.90;;
56242;SDS011;42155;53.096;23.226;2023-02-13T06:27:53;27.20;;;11.45;;
56242;SDS011;42155;53.096;23.226;2023-02-13T06:29:54;16.70;;;9.32;;
56242;SDS011;42155;53.096;23.226;2023-02-13T06:31:54;24.95;;;10.23;;
56242;SDS011;42155;53.096;23.226;2023-02-13T06:33:54;23.40;;;10.40;;
56242;SDS011;42155;53.096;23.226;2023-02-13T06:35:54;23.73;;;9.50;;
56242;SDS011;42155;53.096;23.226;2023-02-13T06:37:55;25.63;;;9.65;;
56242;SDS011;42155;53.096;23.226;2023-02-13T06:39:55;20.27;;;9.07;;
56242;SDS011;42155;53.096;23.226;2023-02-13T06:41:56;18.85;;;8.63;;
56242;SDS011;42155;53.096;23.226;2023-02-13T06:43:56;20.98;;;9.07;;
56242;SDS011;42155;53.096;23.226;2023-02-13T06:45:56;23.17;;;9.50;;
56242;SDS011;42155;53.096;23.226;2023-02-13T06:47:57;30.67;;;9.70;;
56242;SDS011;42155;53.096;23.226;2023-02-13T06:49:57;22.73;;;9.80;;
56242;SDS011;42155;53.096;23.226;2023-02-13T06:51:57;18.65;;;9.13;;
56242;SDS011;42155;53.096;23.226;2023-02-13T06:53:58;15.85;;;8.02;;
56242;SDS011;42155;53.096;23.226;2023-02-13T06:56:01;20.67;;;9.50;;
56242;SDS011;42155;53.096;23.226;2023-02-13T06:58:03;21.85;;;8.63;;
56242;SDS011;42155;53.096;23.226;2023-02-13T07:00:03;19.80;;;8.38;;
56242;SDS011;42155;53.096;23.226;2023-02-13T07:02:04;17.73;;;8.07;;
56242;SDS011;42155;53.096;23.226;2023-02-13T07:04:04;17.95;;;8.40;;
56242;SDS011;42155;53.096;23.226;2023-02-13T07:06:05;19.02;;;7.97;;
56242;SDS011;42155;53.096;23.226;2023-02-13T07:08:05;14.65;;;8.60;;
56242;SDS011;42155;53.096;23.226;2023-02-13T07:12:43;18.30;;;7.38;;
56242;SDS011;42155;53.096;23.226;2023-02-13T07:14:44;14.65;;;7.55;;
56242;SDS011;42155;53.096;23.226;2023-02-13T07:16:44;22.35;;;8.43;;
56242;SDS011;42155;53.096;23.226;2023-02-13T07:18:44;18.52;;;7.97;;
56242;SDS011;42155;53.096;23.226;2023-02-13T07:20:45;15.65;;;7.78;;
56242;SDS011;42155;53.096;23.226;2023-02-13T07:22:45;13.48;;;7.47;;
56242;SDS011;42155;53.096;23.226;2023-02-13T07:24:45;18.67;;;7.82;;
56242;SDS011;42155;53.096;23.226;2023-02-13T07:26:46;13.05;;;7.47;;
56242;SDS011;42155;53.096;23.226;2023-02-13T07:28:46;15.13;;;7.95;;
56242;SDS011;42155;53.096;23.226;2023-02-13T07:30:46;22.08;;;7.80;;
56242;SDS011;42155;53.096;23.226;2023-02-13T07:32:47;14.60;;;7.57;;
56242;SDS011;42155;53.096;23.226;2023-02-13T07:34:47;18.15;;;8.07;;
56242;SDS011;42155;53.096;23.226;2023-02-13T07:36:47;15.63;;;7.25;;
56242;SDS011;42155;53.096;23.226;2023-02-13T07:38:48;17.63;;;8.02;;
56242;SDS011;42155;53.096;23.226;2023-02-13T07:40:48;14.60;;;6.82;;
56242;SDS011;42155;53.096;23.226;2023-02-13T07:42:48;17.98;;;7.15;;
56242;SDS011;42155;53.096;23.226;2023-02-13T07:44:49;14.77;;;7.40;;
56242;SDS011;42155;53.096;23.226;2023-02-13T07:46:49;14.48;;;7.65;;
56242;SDS011;42155;53.096;23.226;2023-02-13T07:48:52;15.35;;;8.05;;
56242;SDS011;42155;53.096;23.226;2023-02-13T07:50:54;14.93;;;7.30;;
56242;SDS011;42155;53.096;23.226;2023-02-13T07:53:00;14.30;;;7.72;;
56242;SDS011;42155;53.096;23.226;2023-02-13T07:55:01;18.08;;;8.07;;
56242;SDS011;42155;53.096;23.226;2023-02-13T07:57:02;18.50;;;7.50;;
56242;SDS011;42155;53.096;23.226;2023-02-13T07:59:03;19.05;;;7.90;;
56242;SDS011;42155;53.096;23.226;2023-02-13T08:01:10;20.55;;;7.72;;
56242;SDS011;42155;53.096;23.226;2023-02-13T08:03:12;19.27;;;7.18;;
56242;SDS011;42155;53.096;23.226;2023-02-13T08:05:12;14.05;;;7.10;;
56242;SDS011;42155;53.096;23.226;2023-02-13T08:07:14;14.63;;;7.50;;
56242;SDS011;42155;53.096;23.226;2023-02-13T08:09:17;15.20;;;7.18;;
56242;SDS011;42155;53.096;23.226;2023-02-13T08:11:29;13.43;;;7.68;;
56242;SDS011;42155;53.096;23.226;2023-02-13T08:13:31;15.82;;;7.60;;
56242;SDS011;42155;53.096;23.226;2023-02-13T08:15:32;16.13;;;7.18;;
56242;SDS011;42155;53.096;23.226;2023-02-13T08:17:32;15.32;;;7.13;;
56242;SDS011;42155;53.096;23.226;2023-02-13T08:19:32;14.77;;;7.30;;
56242;SDS011;42155;53.096;23.226;2023-02-13T08:21:33;16.73;;;7.40;;
56242;SDS011;42155;53.096;23.226;2023-02-13T08:23:33;15.00;;;8.02;;
56242;SDS011;42155;53.096;23.226;2023-02-13T08:25:33;16.40;;;8.00;;
56242;SDS011;42155;53.096;23.226;2023-02-13T08:27:34;16.00;;;7.85;;
56242;SDS011;42155;53.096;23.226;2023-02-13T08:29:34;19.80;;;7.28;;
56242;SDS011;42155;53.096;23.226;2023-02-13T08:31:34;14.27;;;7.28;;
56242;SDS011;42155;53.096;23.226;2023-02-13T08:33:35;12.40;;;6.82;;
56242;SDS011;42155;53.096;23.226;2023-02-13T08:35:35;18.33;;;7.10;;
56242;SDS011;42155;53.096;23.226;2023-02-13T08:37:35;16.45;;;7.10;;
56242;SDS011;42155;53.096;23.226;2023-02-13T08:39:36;17.23;;;7.55;;
56242;SDS011;42155;53.096;23.226;2023-02-13T08:41:36;14.52;;;7.43;;
56242;SDS011;42155;53.096;23.226;2023-02-13T08:43:36;17.52;;;6.97;;
56242;SDS011;42155;53.096;23.226;2023-02-13T08:45:37;13.70;;;7.10;;
56242;SDS011;42155;53.096;23.226;2023-02-13T08:47:37;15.85;;;7.15;;
56242;SDS011;42155;53.096;23.226;2023-02-13T08:49:38;12.35;;;6.45;;
56242;SDS011;42155;53.096;23.226;2023-02-13T08:51:38;14.55;;;6.88;;
56242;SDS011;42155;53.096;23.226;2023-02-13T08:53:38;11.20;;;6.10;;
56242;SDS011;42155;53.096;23.226;2023-02-13T08:55:39;13.00;;;6.82;;
56242;SDS011;42155;53.096;23.226;2023-02-13T08:57:40;12.35;;;6.65;;
56242;SDS011;42155;53.096;23.226;2023-02-13T08:59:40;14.38;;;7.70;;
56242;SDS011;42155;53.096;23.226;2023-02-13T09:01:40;12.20;;;6.75;;
56242;SDS011;42155;53.096;23.226;2023-02-13T09:03:41;15.73;;;6.72;;
56242;SDS011;42155;53.096;23.226;2023-02-13T09:05:41;11.85;;;5.85;;
56242;SDS011;42155;53.096;23.226;2023-02-13T09:07:42;17.17;;;7.45;;
56242;SDS011;42155;53.096;23.226;2023-02-13T09:09:42;12.20;;;7.30;;
56242;SDS011;42155;53.096;23.226;2023-02-13T09:11:42;15.57;;;6.40;;
56242;SDS011;42155;53.096;23.226;2023-02-13T09:13:43;19.55;;;6.70;;
56242;SDS011;42155;53.096;23.226;2023-02-13T09:15:43;13.07;;;6.35;;
56242;SDS011;42155;53.096;23.226;2023-02-13T09:17:43;14.80;;;5.93;;
56242;SDS011;42155;53.096;23.226;2023-02-13T09:19:44;11.32;;;5.85;;
56242;SDS011;42155;53.096;23.226;2023-02-13T09:21:44;12.63;;;5.68;;
56242;SDS011;42155;53.096;23.226;2023-02-13T09:23:44;11.25;;;5.68;;
56242;SDS011;42155;53.096;23.226;2023-02-13T09:25:45;15.35;;;5.75;;
56242;SDS011;42155;53.096;23.226;2023-02-13T09:27:45;12.02;;;5.53;;
56242;SDS011;42155;53.096;23.226;2023-02-13T09:29:45;9.48;;;5.40;;
56242;SDS011;42155;53.096;23.226;2023-02-13T09:31:46;15.88;;;6.03;;
56242;SDS011;42155;53.096;23.226;2023-02-13T09:33:46;11.13;;;5.00;;
56242;SDS011;42155;53.096;23.226;2023-02-13T09:35:47;15.85;;;5.60;;
56242;SDS011;42155;53.096;23.226;2023-02-13T09:37:47;9.43;;;5.00;;
56242;SDS011;42155;53.096;23.226;2023-02-13T09:39:48;15.30;;;5.30;;
56242;SDS011;42155;53.096;23.226;2023-02-13T09:41:49;13.00;;;5.38;;
56242;SDS011;42155;53.096;23.226;2023-02-13T09:43:54;10.35;;;5.75;;
56242;SDS011;42155;53.096;23.226;2023-02-13T09:45:58;8.57;;;4.72;;
56242;SDS011;42155;53.096;23.226;2023-02-13T09:48:04;12.30;;;5.85;;
56242;SDS011;42155;53.096;23.226;2023-02-13T09:50:09;12.88;;;5.22;;
56242;SDS011;42155;53.096;23.226;2023-02-13T09:52:13;11.88;;;5.18;;
56242;SDS011;42155;53.096;23.226;2023-02-13T09:54:14;12.07;;;5.40;;
56242;SDS011;42155;53.096;23.226;2023-02-13T09:56:16;11.60;;;5.45;;
56242;SDS011;42155;53.096;23.226;2023-02-13T09:58:42;13.00;;;5.80;;
56242;SDS011;42155;53.096;23.226;2023-02-13T10:00:57;14.40;;;5.50;;
56242;SDS011;42155;53.096;23.226;2023-02-13T10:03:21;10.68;;;6.28;;
56242;SDS011;42155;53.096;23.226;2023-02-13T10:14:15;10.23;;;5.50;;
56242;SDS011;42155;53.096;23.226;2023-02-13T10:21:04;11.27;;;4.85;;
56242;SDS011;42155;53.096;23.226;2023-02-13T10:25:24;10.48;;;5.35;;
56242;SDS011;42155;53.096;23.226;2023-02-13T10:27:39;13.75;;;5.63;;
56242;SDS011;42155;53.096;23.226;2023-02-13T10:29:45;14.80;;;5.55;;
56242;SDS011;42155;53.096;23.226;2023-02-13T10:31:50;12.60;;;5.18;;
56242;SDS011;42155;53.096;23.226;2023-02-13T10:33:54;13.70;;;5.60;;
56242;SDS011;42155;53.096;23.226;2023-02-13T10:38:11;10.27;;;5.40;;
56242;SDS011;42155;53.096;23.226;2023-02-13T10:40:15;9.02;;;5.10;;
56242;SDS011;42155;53.096;23.226;2023-02-13T10:52:04;10.63;;;5.57;;
56242;SDS011;42155;53.096;23.226;2023-02-13T10:53:54;11.52;;;5.55;;
56242;SDS011;42155;53.096;23.226;2023-02-13T11:01:08;11.18;;;5.15;;
56242;SDS011;42155;53.096;23.226;2023-02-13T11:03:25;14.63;;;6.03;;
56242;SDS011;42155;53.096;23.226;2023-02-13T11:05:32;14.07;;;5.93;;
56242;SDS011;42155;53.096;23.226;2023-02-13T11:07:36;13.63;;;5.78;;
56242;SDS011;42155;53.096;23.226;2023-02-13T11:09:38;12.88;;;5.07;;
56242;SDS011;42155;53.096;23.226;2023-02-13T11:11:42;10.43;;;5.38;;
56242;SDS011;42155;53.096;23.226;2023-02-13T11:13:42;12.63;;;5.55;;
56242;SDS011;42155;53.096;23.226;2023-02-13T11:15:53;14.43;;;5.47;;
56242;SDS011;42155;53.096;23.226;2023-02-13T11:18:18;12.32;;;5.05;;
56242;SDS011;42155;53.096;23.226;2023-02-13T11:24:41;9.10;;;5.00;;
56242;SDS011;42155;53.096;23.226;2023-02-13T11:26:58;11.50;;;5.78;;
56242;SDS011;42155;53.096;23.226;2023-02-13T11:29:05;11.52;;;5.65;;
56242;SDS011;42155;53.096;23.226;2023-02-13T11:31:25;10.18;;;5.18;;
56242;SDS011;42155;53.096;23.226;2023-02-13T11:33:32;11.68;;;5.22;;
56242;SDS011;42155;53.096;23.226;2023-02-13T11:35:34;10.63;;;5.03;;
56242;SDS011;42155;53.096;23.226;2023-02-13T11:37:35;11.20;;;4.88;;
56242;SDS011;42155;53.096;23.226;2023-02-13T11:39:36;8.20;;;4.60;;
56242;SDS011;42155;53.096;23.226;2023-02-13T11:41:38;8.75;;;5.03;;
56242;SDS011;42155;53.096;23.226;2023-02-13T11:45:59;10.27;;;5.15;;
56242;SDS011;42155;53.096;23.226;2023-02-13T11:48:08;8.18;;;4.22;;
56242;SDS011;42155;53.096;23.226;2023-02-13T11:52:27;9.73;;;5.15;;
56242;SDS011;42155;53.096;23.226;2023-02-13T11:56:51;12.48;;;5.38;;
56242;SDS011;42155;53.096;23.226;2023-02-13T11:59:00;10.77;;;4.78;;
56242;SDS011;42155;53.096;23.226;2023-02-13T12:01:22;9.80;;;4.80;;
56242;SDS011;42155;53.096;23.226;2023-02-13T12:03:28;7.55;;;4.22;;
56242;SDS011;42155;53.096;23.226;2023-02-13T12:05:30;10.23;;;5.07;;
56242;SDS011;42155;53.096;23.226;2023-02-13T12:07:30;10.23;;;4.82;;
56242;SDS011;42155;53.096;23.226;2023-02-13T12:09:32;7.53;;;3.70;;
56242;SDS011;42155;53.096;23.226;2023-02-13T12:11:51;7.20;;;4.28;;
56242;SDS011;42155;53.096;23.226;2023-02-13T12:13:54;9.50;;;4.25;;
56242;SDS011;42155;53.096;23.226;2023-02-13T12:15:57;8.43;;;4.32;;
56242;SDS011;42155;53.096;23.226;2023-02-13T12:20:11;9.30;;;4.68;;
56242;SDS011;42155;53.096;23.226;2023-02-13T12:22:19;9.95;;;4.20;;
56242;SDS011;42155;53.096;23.226;2023-02-13T12:31:26;9.55;;;4.60;;
56242;SDS011;42155;53.096;23.226;2023-02-13T12:38:23;13.82;;;5.40;;
56242;SDS011;42155;53.096;23.226;2023-02-13T12:49:30;11.50;;;6.13;;
56242;SDS011;42155;53.096;23.226;2023-02-13T12:56:47;10.05;;;5.30;;
56242;SDS011;42155;53.096;23.226;2023-02-13T13:08:57;10.13;;;5.25;;
56242;SDS011;42155;53.096;23.226;2023-02-13T13:19:13;8.63;;;4.82;;
56242;SDS011;42155;53.096;23.226;2023-02-13T13:21:28;11.60;;;5.22;;
56242;SDS011;42155;53.096;23.226;2023-02-13T13:23:38;10.30;;;4.95;;
56242;SDS011;42155;53.096;23.226;2023-02-13T13:28:22;13.45;;;6.40;;
56242;SDS011;42155;53.096;23.226;2023-02-13T13:30:29;12.45;;;5.40;;
56242;SDS011;42155;53.096;23.226;2023-02-13T13:32:32;11.80;;;5.75;;
56242;SDS011;42155;53.096;23.226;2023-02-13T13:34:33;11.98;;;5.60;;
56242;SDS011;42155;53.096;23.226;2023-02-13T13:36:40;12.38;;;5.32;;
56242;SDS011;42155;53.096;23.226;2023-02-13T13:50:18;12.13;;;5.10;;
56242;SDS011;42155;53.096;23.226;2023-02-13T13:52:31;11.07;;;4.93;;
56242;SDS011;42155;53.096;23.226;2023-02-13T13:54:33;8.52;;;4.10;;
56242;SDS011;42155;53.096;23.226;2023-02-13T13:58:52;11.98;;;4.70;;
56242;SDS011;42155;53.096;23.226;2023-02-13T14:03:22;12.27;;;5.50;;
56242;SDS011;42155;53.096;23.226;2023-02-13T14:05:32;10.07;;;4.50;;
56242;SDS011;42155;53.096;23.226;2023-02-13T14:07:33;10.88;;;4.72;;
56242;SDS011;42155;53.096;23.226;2023-02-13T14:09:39;10.48;;;5.05;;
56242;SDS011;42155;53.096;23.226;2023-02-13T14:11:42;12.13;;;4.95;;
56242;SDS011;42155;53.096;23.226;2023-02-13T14:13:43;7.68;;;4.10;;
56242;SDS011;42155;53.096;23.226;2023-02-13T14:19:45;10.57;;;4.72;;
56242;SDS011;42155;53.096;23.226;2023-02-13T14:21:51;9.82;;;4.75;;
56242;SDS011;42155;53.096;23.226;2023-02-13T14:23:52;10.80;;;4.80;;
56242;SDS011;42155;53.096;23.226;2023-02-13T14:26:09;13.25;;;5.18;;
56242;SDS011;42155;53.096;23.226;2023-02-13T14:28:18;9.57;;;4.57;;
56242;SDS011;42155;53.096;23.226;2023-02-13T14:32:36;17.17;;;5.22;;
56242;SDS011;42155;53.096;23.226;2023-02-13T14:34:37;11.45;;;5.25;;
56242;SDS011;42155;53.096;23.226;2023-02-13T14:36:57;10.55;;;5.28;;